sensor_id;sensor_type;location;lat;lon;timestamp;P1;durP1;ratioP1;P2;durP2;ratioP2
8411;SDS011;4243;49.296;11.348;2022-09-09T00:02:05;123.60;;;3.13;;
8411;SDS011;4243;49.296;11.348;2022-09-09T00:04:46;122.50;;;3.10;;
8411;SDS011;4243;49.296;11.348;2022-09-09T00:10:28;123.90;;;3.20;;
8411;SDS011;4243;49.296;11.348;2022-09-09T00:15:42;123.37;;;3.20;;
8411;SDS011;4243;49.296;11.348;2022-09-09T00:18:38;123.87;;;3.30;;
8411;SDS011;4243;49.296;11.348;2022-09-09T00:21:43;124.60;;;3.20;;
8411;SDS011;4243;49.296;11.348;2022-09-09T00:24:39;124.10;;;3.27;;
8411;SDS011;4243;49.296;11.348;2022-09-09T00:27:47;123.77;;;3.20;;
8411;SDS011;4243;49.296;11.348;2022-09-09T00:32:55;123.80;;;3.17;;
8411;SDS011;4243;49.296;11.348;2022-09-09T00:35:34;124.07;;;3.33;;
8411;SDS011;4243;49.296;11.348;2022-09-09T00:38:27;122.83;;;3.30;;
8411;SDS011;4243;49.296;11.348;2022-09-09T00:41:18;123.67;;;3.10;;
8411;SDS011;4243;49.296;11.348;2022-09-09T00:49:47;124.17;;;3.40;;
8411;SDS011;4243;49.296;11.348;2022-09-09T00:55:49;123.37;;;3.40;;
8411;SDS011;4243;49.296;11.348;2022-09-09T00:58:27;123.37;;;3.23;;
8411;SDS011;4243;49.296;11.348;2022-09-09T01:03:38;123.87;;;3.23;;
8411;SDS011;4243;49.296;11.348;2022-09-09T01:06:35;124.10;;;3.40;;
8411;SDS011;4243;49.296;11.348;2022-09-09T01:09:13;123.83;;;3.17;;
8411;SDS011;4243;49.296;11.348;2022-09-09T01:14:52;123.27;;;3.30;;
8411;SDS011;4243;49.296;11.348;2022-09-09T01:17:49;123.73;;;3.20;;
8411;SDS011;4243;49.296;11.348;2022-09-09T01:20:45;122.30;;;3.40;;
8411;SDS011;4243;49.296;11.348;2022-09-09T01:27:02;123.80;;;3.30;;
8411;SDS011;4243;49.296;11.348;2022-09-09T01:29:33;122.70;;;3.40;;
8411;SDS011;4243;49.296;11.348;2022-09-09T01:32:02;123.37;;;3.20;;
8411;SDS011;4243;49.296;11.348;2022-09-09T01:35:16;123.87;;;3.20;;
8411;SDS011;4243;49.296;11.348;2022-09-09T01:38:08;123.70;;;3.17;;
8411;SDS011;4243;49.296;11.348;2022-09-09T01:40:36;123.57;;;3.37;;
8411;SDS011;4243;49.296;11.348;2022-09-09T01:43:04;123.50;;;3.37;;
8411;SDS011;4243;49.296;11.348;2022-09-09T01:45:34;124.00;;;3.33;;
8411;SDS011;4243;49.296;11.348;2022-09-09T01:48:02;123.47;;;3.20;;
8411;SDS011;4243;49.296;11.348;2022-09-09T01:50:41;122.37;;;3.40;;
8411;SDS011;4243;49.296;11.348;2022-09-09T01:53:08;123.90;;;3.40;;
8411;SDS011;4243;49.296;11.348;2022-09-09T01:55:37;123.17;;;3.23;;
8411;SDS011;4243;49.296;11.348;2022-09-09T01:58:17;123.70;;;3.17;;
8411;SDS011;4243;49.296;11.348;2022-09-09T02:04:02;121.30;;;3.10;;
8411;SDS011;4243;49.296;11.348;2022-09-09T02:06:45;122.57;;;3.10;;
8411;SDS011;4243;49.296;11.348;2022-09-09T02:09:23;122.07;;;3.33;;
8411;SDS011;4243;49.296;11.348;2022-09-09T02:12:05;121.70;;;3.10;;
8411;SDS011;4243;49.296;11.348;2022-09-09T02:14:50;122.87;;;3.10;;
8411;SDS011;4243;49.296;11.348;2022-09-09T02:17:27;123.00;;;2.97;;
8411;SDS011;4243;49.296;11.348;2022-09-09T02:20:09;122.90;;;3.10;;
8411;SDS011;4243;49.296;11.348;2022-09-09T02:22:49;123.03;;;3.17;;
8411;SDS011;4243;49.296;11.348;2022-09-09T02:25:19;122.60;;;2.90;;
8411;SDS011;4243;49.296;11.348;2022-09-09T02:27:52;123.10;;;3.07;;
8411;SDS011;4243;49.296;11.348;2022-09-09T02:30:21;121.77;;;2.90;;
8411;SDS011;4243;49.296;11.348;2022-09-09T02:32:53;123.10;;;3.00;;
8411;SDS011;4243;49.296;11.348;2022-09-09T02:35:31;123.47;;;3.00;;
8411;SDS011;4243;49.296;11.348;2022-09-09T02:38:04;123.10;;;3.00;;
8411;SDS011;4243;49.296;11.348;2022-09-09T02:40:39;122.17;;;3.03;;
8411;SDS011;4243;49.296;11.348;2022-09-09T02:43:08;121.83;;;2.90;;
8411;SDS011;4243;49.296;11.348;2022-09-09T02:45:39;122.10;;;2.90;;
8411;SDS011;4243;49.296;11.348;2022-09-09T02:51:13;122.43;;;2.90;;
8411;SDS011;4243;49.296;11.348;2022-09-09T02:54:21;121.97;;;2.90;;
8411;SDS011;4243;49.296;11.348;2022-09-09T02:57:01;122.37;;;2.87;;
8411;SDS011;4243;49.296;11.348;2022-09-09T02:59:49;122.53;;;3.00;;
8411;SDS011;4243;49.296;11.348;2022-09-09T03:02:18;121.93;;;2.90;;
8411;SDS011;4243;49.296;11.348;2022-09-09T03:04:51;122.40;;;3.00;;
8411;SDS011;4243;49.296;11.348;2022-09-09T03:07:19;122.00;;;2.80;;
8411;SDS011;4243;49.296;11.348;2022-09-09T03:09:49;122.80;;;2.87;;
8411;SDS011;4243;49.296;11.348;2022-09-09T03:12:16;122.50;;;2.90;;
8411;SDS011;4243;49.296;11.348;2022-09-09T03:14:43;122.40;;;2.90;;
8411;SDS011;4243;49.296;11.348;2022-09-09T03:17:12;122.20;;;2.87;;
8411;SDS011;4243;49.296;11.348;2022-09-09T03:19:47;122.67;;;2.87;;
8411;SDS011;4243;49.296;11.348;2022-09-09T03:22:15;122.30;;;2.90;;
8411;SDS011;4243;49.296;11.348;2022-09-09T03:24:43;122.37;;;3.00;;
8411;SDS011;4243;49.296;11.348;2022-09-09T03:27:13;122.27;;;3.13;;
8411;SDS011;4243;49.296;11.348;2022-09-09T03:29:43;122.90;;;2.97;;
8411;SDS011;4243;49.296;11.348;2022-09-09T03:32:15;122.37;;;3.00;;
8411;SDS011;4243;49.296;11.348;2022-09-09T03:34:44;122.07;;;2.90;;
8411;SDS011;4243;49.296;11.348;2022-09-09T03:37:13;123.40;;;3.07;;
8411;SDS011;4243;49.296;11.348;2022-09-09T03:39:41;123.10;;;3.00;;
8411;SDS011;4243;49.296;11.348;2022-09-09T03:42:12;122.60;;;3.00;;
8411;SDS011;4243;49.296;11.348;2022-09-09T03:44:40;122.63;;;3.00;;
8411;SDS011;4243;49.296;11.348;2022-09-09T03:47:08;122.80;;;3.00;;
8411;SDS011;4243;49.296;11.348;2022-09-09T03:49:36;123.07;;;2.90;;
8411;SDS011;4243;49.296;11.348;2022-09-09T03:52:04;122.90;;;3.00;;
8411;SDS011;4243;49.296;11.348;2022-09-09T03:54:31;122.70;;;2.97;;
8411;SDS011;4243;49.296;11.348;2022-09-09T03:56:59;123.20;;;2.90;;
8411;SDS011;4243;49.296;11.348;2022-09-09T03:59:26;122.47;;;2.87;;
8411;SDS011;4243;49.296;11.348;2022-09-09T04:01:54;122.33;;;2.90;;
8411;SDS011;4243;49.296;11.348;2022-09-09T04:04:23;122.40;;;2.90;;
8411;SDS011;4243;49.296;11.348;2022-09-09T04:06:52;122.40;;;2.90;;
8411;SDS011;4243;49.296;11.348;2022-09-09T04:09:20;122.80;;;2.93;;
8411;SDS011;4243;49.296;11.348;2022-09-09T04:11:49;122.67;;;2.97;;
8411;SDS011;4243;49.296;11.348;2022-09-09T04:14:16;122.57;;;2.90;;
8411;SDS011;4243;49.296;11.348;2022-09-09T04:16:44;122.80;;;3.00;;
8411;SDS011;4243;49.296;11.348;2022-09-09T04:19:12;122.67;;;2.93;;
8411;SDS011;4243;49.296;11.348;2022-09-09T04:21:41;122.80;;;2.90;;
8411;SDS011;4243;49.296;11.348;2022-09-09T04:24:09;122.37;;;2.90;;
8411;SDS011;4243;49.296;11.348;2022-09-09T04:26:36;122.60;;;2.83;;
8411;SDS011;4243;49.296;11.348;2022-09-09T04:29:04;122.60;;;3.00;;
8411;SDS011;4243;49.296;11.348;2022-09-09T04:31:33;122.30;;;2.90;;
8411;SDS011;4243;49.296;11.348;2022-09-09T04:34:01;122.47;;;2.87;;
8411;SDS011;4243;49.296;11.348;2022-09-09T04:36:32;122.70;;;2.97;;
8411;SDS011;4243;49.296;11.348;2022-09-09T04:39:03;122.40;;;2.90;;
8411;SDS011;4243;49.296;11.348;2022-09-09T04:41:31;123.07;;;3.07;;
8411;SDS011;4243;49.296;11.348;2022-09-09T04:43:58;122.30;;;2.87;;
8411;SDS011;4243;49.296;11.348;2022-09-09T04:46:27;122.40;;;2.87;;
8411;SDS011;4243;49.296;11.348;2022-09-09T04:48:56;122.07;;;2.90;;
8411;SDS011;4243;49.296;11.348;2022-09-09T04:51:27;122.47;;;2.93;;
8411;SDS011;4243;49.296;11.348;2022-09-09T04:53:57;122.80;;;2.90;;
8411;SDS011;4243;49.296;11.348;2022-09-09T04:56:25;122.50;;;2.90;;
8411;SDS011;4243;49.296;11.348;2022-09-09T04:58:59;122.97;;;2.90;;
8411;SDS011;4243;49.296;11.348;2022-09-09T05:01:49;122.90;;;3.00;;
8411;SDS011;4243;49.296;11.348;2022-09-09T05:04:17;121.87;;;3.00;;
8411;SDS011;4243;49.296;11.348;2022-09-09T05:06:45;122.10;;;2.90;;
8411;SDS011;4243;49.296;11.348;2022-09-09T05:09:12;121.87;;;2.90;;
8411;SDS011;4243;49.296;11.348;2022-09-09T05:11:40;122.47;;;3.10;;
8411;SDS011;4243;49.296;11.348;2022-09-09T05:14:15;122.73;;;3.00;;
8411;SDS011;4243;49.296;11.348;2022-09-09T05:16:44;122.50;;;3.00;;
8411;SDS011;4243;49.296;11.348;2022-09-09T05:19:13;122.70;;;2.87;;
8411;SDS011;4243;49.296;11.348;2022-09-09T05:21:43;122.60;;;2.90;;
8411;SDS011;4243;49.296;11.348;2022-09-09T05:24:14;123.00;;;2.87;;
8411;SDS011;4243;49.296;11.348;2022-09-09T05:26:41;121.80;;;2.93;;
8411;SDS011;4243;49.296;11.348;2022-09-09T05:29:10;123.17;;;2.90;;
8411;SDS011;4243;49.296;11.348;2022-09-09T05:31:37;122.40;;;3.03;;
8411;SDS011;4243;49.296;11.348;2022-09-09T05:34:09;122.30;;;3.10;;
8411;SDS011;4243;49.296;11.348;2022-09-09T05:36:38;122.30;;;2.90;;
8411;SDS011;4243;49.296;11.348;2022-09-09T05:39:05;122.37;;;3.03;;
8411;SDS011;4243;49.296;11.348;2022-09-09T05:41:34;122.13;;;2.90;;
8411;SDS011;4243;49.296;11.348;2022-09-09T05:44:02;122.10;;;2.97;;
8411;SDS011;4243;49.296;11.348;2022-09-09T05:46:34;121.70;;;2.80;;
8411;SDS011;4243;49.296;11.348;2022-09-09T05:49:02;122.10;;;2.70;;
8411;SDS011;4243;49.296;11.348;2022-09-09T05:51:32;120.67;;;2.67;;
8411;SDS011;4243;49.296;11.348;2022-09-09T05:54:08;121.20;;;2.67;;
8411;SDS011;4243;49.296;11.348;2022-09-09T05:56:40;121.50;;;2.90;;
8411;SDS011;4243;49.296;11.348;2022-09-09T05:59:08;121.40;;;2.80;;
8411;SDS011;4243;49.296;11.348;2022-09-09T06:01:37;121.57;;;2.57;;
8411;SDS011;4243;49.296;11.348;2022-09-09T06:04:08;120.57;;;2.73;;
8411;SDS011;4243;49.296;11.348;2022-09-09T06:06:38;121.00;;;2.70;;
8411;SDS011;4243;49.296;11.348;2022-09-09T06:09:11;120.83;;;2.60;;
8411;SDS011;4243;49.296;11.348;2022-09-09T06:11:41;120.63;;;2.67;;
8411;SDS011;4243;49.296;11.348;2022-09-09T06:14:10;120.60;;;2.60;;
8411;SDS011;4243;49.296;11.348;2022-09-09T06:16:39;120.37;;;2.73;;
8411;SDS011;4243;49.296;11.348;2022-09-09T06:19:14;120.73;;;2.67;;
8411;SDS011;4243;49.296;11.348;2022-09-09T06:21:41;120.40;;;2.70;;
8411;SDS011;4243;49.296;11.348;2022-09-09T06:24:10;119.97;;;2.70;;
8411;SDS011;4243;49.296;11.348;2022-09-09T06:26:40;120.60;;;2.80;;
8411;SDS011;4243;49.296;11.348;2022-09-09T06:29:10;119.93;;;2.80;;
8411;SDS011;4243;49.296;11.348;2022-09-09T06:31:40;120.30;;;2.83;;
8411;SDS011;4243;49.296;11.348;2022-09-09T06:34:22;120.10;;;2.80;;
8411;SDS011;4243;49.296;11.348;2022-09-09T06:36:53;120.37;;;2.87;;
8411;SDS011;4243;49.296;11.348;2022-09-09T06:39:21;120.30;;;2.93;;
8411;SDS011;4243;49.296;11.348;2022-09-09T06:41:49;120.03;;;3.10;;
8411;SDS011;4243;49.296;11.348;2022-09-09T06:44:37;120.57;;;3.10;;
8411;SDS011;4243;49.296;11.348;2022-09-09T06:47:09;119.97;;;3.07;;
8411;SDS011;4243;49.296;11.348;2022-09-09T06:49:38;120.00;;;2.87;;
8411;SDS011;4243;49.296;11.348;2022-09-09T06:52:09;120.37;;;2.70;;
8411;SDS011;4243;49.296;11.348;2022-09-09T06:54:36;120.30;;;2.70;;
8411;SDS011;4243;49.296;11.348;2022-09-09T06:57:04;120.20;;;2.80;;
8411;SDS011;4243;49.296;11.348;2022-09-09T06:59:53;119.77;;;2.70;;
8411;SDS011;4243;49.296;11.348;2022-09-09T07:02:21;120.47;;;2.67;;
8411;SDS011;4243;49.296;11.348;2022-09-09T07:04:48;120.30;;;2.60;;
8411;SDS011;4243;49.296;11.348;2022-09-09T07:07:17;120.13;;;2.50;;
8411;SDS011;4243;49.296;11.348;2022-09-09T07:09:46;119.70;;;2.47;;
8411;SDS011;4243;49.296;11.348;2022-09-09T07:12:14;120.00;;;2.40;;
8411;SDS011;4243;49.296;11.348;2022-09-09T07:14:49;119.67;;;2.50;;
8411;SDS011;4243;49.296;11.348;2022-09-09T07:17:16;120.20;;;2.50;;
8411;SDS011;4243;49.296;11.348;2022-09-09T07:19:43;120.10;;;2.50;;
8411;SDS011;4243;49.296;11.348;2022-09-09T07:22:10;119.50;;;2.50;;
8411;SDS011;4243;49.296;11.348;2022-09-09T07:24:38;119.70;;;2.50;;
8411;SDS011;4243;49.296;11.348;2022-09-09T07:27:06;119.73;;;2.40;;
8411;SDS011;4243;49.296;11.348;2022-09-09T07:29:36;120.00;;;2.53;;
8411;SDS011;4243;49.296;11.348;2022-09-09T07:32:04;119.13;;;2.70;;
8411;SDS011;4243;49.296;11.348;2022-09-09T07:34:35;119.40;;;2.77;;
8411;SDS011;4243;49.296;11.348;2022-09-09T07:37:05;119.60;;;2.70;;
8411;SDS011;4243;49.296;11.348;2022-09-09T07:39:34;119.63;;;2.90;;
8411;SDS011;4243;49.296;11.348;2022-09-09T07:42:02;119.70;;;3.07;;
8411;SDS011;4243;49.296;11.348;2022-09-09T07:44:31;119.80;;;3.40;;
8411;SDS011;4243;49.296;11.348;2022-09-09T07:47:05;120.15;;;3.15;;
8411;SDS011;4243;49.296;11.348;2022-09-09T07:49:38;120.57;;;3.20;;
8411;SDS011;4243;49.296;11.348;2022-09-09T07:52:07;120.10;;;3.23;;
8411;SDS011;4243;49.296;11.348;2022-09-09T07:54:37;119.97;;;3.40;;
8411;SDS011;4243;49.296;11.348;2022-09-09T07:57:05;120.20;;;3.00;;
8411;SDS011;4243;49.296;11.348;2022-09-09T07:59:34;119.23;;;3.63;;
8411;SDS011;4243;49.296;11.348;2022-09-09T08:03:38;120.17;;;3.80;;
8411;SDS011;4243;49.296;11.348;2022-09-09T08:06:06;119.00;;;2.80;;
8411;SDS011;4243;49.296;11.348;2022-09-09T08:08:35;118.70;;;2.87;;
8411;SDS011;4243;49.296;11.348;2022-09-09T08:11:08;118.50;;;3.07;;
8411;SDS011;4243;49.296;11.348;2022-09-09T08:13:42;117.90;;;3.27;;
8411;SDS011;4243;49.296;11.348;2022-09-09T08:16:11;117.40;;;2.53;;
8411;SDS011;4243;49.296;11.348;2022-09-09T08:18:48;117.63;;;3.30;;
8411;SDS011;4243;49.296;11.348;2022-09-09T08:21:18;116.20;;;2.83;;
8411;SDS011;4243;49.296;11.348;2022-09-09T08:23:55;117.07;;;3.47;;
8411;SDS011;4243;49.296;11.348;2022-09-09T08:26:26;116.40;;;2.57;;
8411;SDS011;4243;49.296;11.348;2022-09-09T08:29:05;116.50;;;2.40;;
8411;SDS011;4243;49.296;11.348;2022-09-09T08:31:38;114.10;;;1.70;;
8411;SDS011;4243;49.296;11.348;2022-09-09T08:34:10;115.07;;;1.87;;
8411;SDS011;4243;49.296;11.348;2022-09-09T08:36:42;114.20;;;2.00;;
8411;SDS011;4243;49.296;11.348;2022-09-09T08:39:13;114.10;;;1.70;;
8411;SDS011;4243;49.296;11.348;2022-09-09T08:44:50;113.70;;;1.80;;
8411;SDS011;4243;49.296;11.348;2022-09-09T08:50:38;113.50;;;2.50;;
8411;SDS011;4243;49.296;11.348;2022-09-09T08:53:19;114.17;;;2.10;;
8411;SDS011;4243;49.296;11.348;2022-09-09T08:55:56;113.87;;;1.93;;
8411;SDS011;4243;49.296;11.348;2022-09-09T08:58:48;113.97;;;1.80;;
8411;SDS011;4243;49.296;11.348;2022-09-09T09:04:22;114.50;;;1.70;;
8411;SDS011;4243;49.296;11.348;2022-09-09T09:10:33;116.57;;;2.10;;
8411;SDS011;4243;49.296;11.348;2022-09-09T09:16:23;114.50;;;1.90;;
8411;SDS011;4243;49.296;11.348;2022-09-09T09:19:18;114.17;;;1.80;;
8411;SDS011;4243;49.296;11.348;2022-09-09T09:24:41;112.97;;;1.80;;
8411;SDS011;4243;49.296;11.348;2022-09-09T09:27:31;112.17;;;1.77;;
8411;SDS011;4243;49.296;11.348;2022-09-09T09:35:59;111.50;;;3.03;;
8411;SDS011;4243;49.296;11.348;2022-09-09T09:38:28;111.73;;;2.87;;
8411;SDS011;4243;49.296;11.348;2022-09-09T09:41:16;111.63;;;3.10;;
8411;SDS011;4243;49.296;11.348;2022-09-09T09:47:08;111.97;;;2.90;;
8411;SDS011;4243;49.296;11.348;2022-09-09T09:49:54;112.87;;;3.20;;
8411;SDS011;4243;49.296;11.348;2022-09-09T09:52:31;113.47;;;3.17;;
8411;SDS011;4243;49.296;11.348;2022-09-09T09:55:02;114.17;;;5.00;;
8411;SDS011;4243;49.296;11.348;2022-09-09T09:57:34;114.60;;;5.67;;
8411;SDS011;4243;49.296;11.348;2022-09-09T10:00:14;114.80;;;5.50;;
8411;SDS011;4243;49.296;11.348;2022-09-09T10:02:56;113.67;;;5.00;;
8411;SDS011;4243;49.296;11.348;2022-09-09T10:05:29;112.70;;;3.33;;
8411;SDS011;4243;49.296;11.348;2022-09-09T10:16:49;109.40;;;1.60;;
8411;SDS011;4243;49.296;11.348;2022-09-09T10:24:54;110.90;;;1.70;;
8411;SDS011;4243;49.296;11.348;2022-09-09T10:42:04;115.63;;;2.20;;
8411;SDS011;4243;49.296;11.348;2022-09-09T10:44:45;115.30;;;2.70;;
8411;SDS011;4243;49.296;11.348;2022-09-09T10:47:38;115.60;;;3.10;;
8411;SDS011;4243;49.296;11.348;2022-09-09T10:56:05;116.30;;;2.77;;
8411;SDS011;4243;49.296;11.348;2022-09-09T11:01:25;116.00;;;2.30;;
8411;SDS011;4243;49.296;11.348;2022-09-09T11:04:15;115.27;;;2.90;;
8411;SDS011;4243;49.296;11.348;2022-09-09T11:06:56;116.07;;;3.57;;
8411;SDS011;4243;49.296;11.348;2022-09-09T11:09:28;116.57;;;3.90;;
8411;SDS011;4243;49.296;11.348;2022-09-09T11:12:10;115.37;;;3.70;;
8411;SDS011;4243;49.296;11.348;2022-09-09T11:14:46;115.80;;;3.83;;
8411;SDS011;4243;49.296;11.348;2022-09-09T11:17:47;116.40;;;4.07;;
8411;SDS011;4243;49.296;11.348;2022-09-09T11:20:16;115.73;;;3.33;;
8411;SDS011;4243;49.296;11.348;2022-09-09T11:22:51;115.20;;;2.77;;
8411;SDS011;4243;49.296;11.348;2022-09-09T11:25:34;115.13;;;2.40;;
8411;SDS011;4243;49.296;11.348;2022-09-09T11:37:23;116.80;;;5.07;;
8411;SDS011;4243;49.296;11.348;2022-09-09T11:40:28;116.00;;;2.90;;
8411;SDS011;4243;49.296;11.348;2022-09-09T11:43:01;115.87;;;3.23;;
8411;SDS011;4243;49.296;11.348;2022-09-09T11:45:39;117.07;;;3.97;;
8411;SDS011;4243;49.296;11.348;2022-09-09T11:53:49;116.90;;;3.53;;
8411;SDS011;4243;49.296;11.348;2022-09-09T11:56:44;117.60;;;3.40;;
8411;SDS011;4243;49.296;11.348;2022-09-09T11:59:19;116.37;;;3.30;;
8411;SDS011;4243;49.296;11.348;2022-09-09T12:01:59;116.77;;;3.70;;
8411;SDS011;4243;49.296;11.348;2022-09-09T12:04:49;114.77;;;3.20;;
8411;SDS011;4243;49.296;11.348;2022-09-09T12:07:37;115.30;;;3.00;;
8411;SDS011;4243;49.296;11.348;2022-09-09T12:13:16;115.57;;;4.30;;
8411;SDS011;4243;49.296;11.348;2022-09-09T12:15:49;115.63;;;4.73;;
8411;SDS011;4243;49.296;11.348;2022-09-09T12:18:23;114.90;;;4.47;;
8411;SDS011;4243;49.296;11.348;2022-09-09T12:21:25;114.93;;;4.40;;
8411;SDS011;4243;49.296;11.348;2022-09-09T12:24:18;115.97;;;4.00;;
8411;SDS011;4243;49.296;11.348;2022-09-09T12:27:21;115.77;;;3.53;;
8411;SDS011;4243;49.296;11.348;2022-09-09T12:30:00;115.90;;;3.97;;
8411;SDS011;4243;49.296;11.348;2022-09-09T12:32:37;115.80;;;4.43;;
8411;SDS011;4243;49.296;11.348;2022-09-09T12:35:12;116.07;;;4.93;;
8411;SDS011;4243;49.296;11.348;2022-09-09T12:37:53;115.63;;;4.57;;
8411;SDS011;4243;49.296;11.348;2022-09-09T12:40:29;114.83;;;4.03;;
8411;SDS011;4243;49.296;11.348;2022-09-09T12:43:17;115.57;;;4.47;;
8411;SDS011;4243;49.296;11.348;2022-09-09T12:45:48;115.37;;;4.43;;
8411;SDS011;4243;49.296;11.348;2022-09-09T12:48:28;115.63;;;4.50;;
8411;SDS011;4243;49.296;11.348;2022-09-09T12:51:03;115.47;;;4.13;;
8411;SDS011;4243;49.296;11.348;2022-09-09T12:53:43;115.37;;;4.50;;
8411;SDS011;4243;49.296;11.348;2022-09-09T12:56:19;114.87;;;3.93;;
8411;SDS011;4243;49.296;11.348;2022-09-09T12:58:50;116.07;;;4.70;;
8411;SDS011;4243;49.296;11.348;2022-09-09T13:01:21;117.07;;;5.00;;
8411;SDS011;4243;49.296;11.348;2022-09-09T13:03:55;116.47;;;4.40;;
8411;SDS011;4243;49.296;11.348;2022-09-09T13:06:24;115.90;;;3.63;;
8411;SDS011;4243;49.296;11.348;2022-09-09T13:08:56;116.00;;;4.13;;
8411;SDS011;4243;49.296;11.348;2022-09-09T13:11:26;115.83;;;3.90;;
8411;SDS011;4243;49.296;11.348;2022-09-09T13:14:18;116.33;;;4.60;;
8411;SDS011;4243;49.296;11.348;2022-09-09T13:16:59;116.20;;;4.50;;
8411;SDS011;4243;49.296;11.348;2022-09-09T13:19:31;116.27;;;4.80;;
8411;SDS011;4243;49.296;11.348;2022-09-09T13:22:13;115.67;;;4.77;;
8411;SDS011;4243;49.296;11.348;2022-09-09T13:25:39;114.50;;;4.30;;
8411;SDS011;4243;49.296;11.348;2022-09-09T13:30:31;113.60;;;3.50;;
8411;SDS011;4243;49.296;11.348;2022-09-09T13:35:47;113.40;;;2.30;;
8411;SDS011;4243;49.296;11.348;2022-09-09T13:38:23;114.97;;;2.70;;
8411;SDS011;4243;49.296;11.348;2022-09-09T13:41:03;115.47;;;3.73;;
8411;SDS011;4243;49.296;11.348;2022-09-09T13:43:38;117.20;;;5.73;;
8411;SDS011;4243;49.296;11.348;2022-09-09T13:49:00;116.80;;;3.00;;
8411;SDS011;4243;49.296;11.348;2022-09-09T13:51:45;117.33;;;3.10;;
8411;SDS011;4243;49.296;11.348;2022-09-09T13:54:18;118.07;;;3.53;;
8411;SDS011;4243;49.296;11.348;2022-09-09T13:56:46;118.40;;;4.57;;
8411;SDS011;4243;49.296;11.348;2022-09-09T13:59:16;119.97;;;4.40;;
8411;SDS011;4243;49.296;11.348;2022-09-09T14:01:46;119.57;;;4.53;;
8411;SDS011;4243;49.296;11.348;2022-09-09T14:04:15;119.80;;;4.37;;
8411;SDS011;4243;49.296;11.348;2022-09-09T14:06:43;119.30;;;3.70;;
8411;SDS011;4243;49.296;11.348;2022-09-09T14:09:11;120.00;;;3.27;;
8411;SDS011;4243;49.296;11.348;2022-09-09T14:11:42;120.17;;;2.83;;
8411;SDS011;4243;49.296;11.348;2022-09-09T14:14:11;120.20;;;2.27;;
8411;SDS011;4243;49.296;11.348;2022-09-09T14:16:39;121.57;;;3.40;;
8411;SDS011;4243;49.296;11.348;2022-09-09T14:19:07;121.77;;;3.30;;
8411;SDS011;4243;49.296;11.348;2022-09-09T14:21:35;122.37;;;3.30;;
8411;SDS011;4243;49.296;11.348;2022-09-09T14:24:03;122.00;;;2.93;;
8411;SDS011;4243;49.296;11.348;2022-09-09T14:26:31;121.90;;;2.70;;
8411;SDS011;4243;49.296;11.348;2022-09-09T14:28:58;121.40;;;2.50;;
8411;SDS011;4243;49.296;11.348;2022-09-09T14:31:27;120.73;;;2.23;;
8411;SDS011;4243;49.296;11.348;2022-09-09T14:33:55;120.40;;;2.20;;
8411;SDS011;4243;49.296;11.348;2022-09-09T14:36:22;118.47;;;2.10;;
8411;SDS011;4243;49.296;11.348;2022-09-09T14:38:50;118.83;;;2.10;;
8411;SDS011;4243;49.296;11.348;2022-09-09T14:41:18;117.27;;;2.00;;
8411;SDS011;4243;49.296;11.348;2022-09-09T14:43:48;118.40;;;2.03;;
8411;SDS011;4243;49.296;11.348;2022-09-09T14:46:17;118.40;;;2.10;;
8411;SDS011;4243;49.296;11.348;2022-09-09T14:48:46;117.53;;;2.53;;
8411;SDS011;4243;49.296;11.348;2022-09-09T14:51:20;118.90;;;2.60;;
8411;SDS011;4243;49.296;11.348;2022-09-09T14:53:57;119.43;;;2.80;;
8411;SDS011;4243;49.296;11.348;2022-09-09T14:56:26;119.63;;;2.47;;
8411;SDS011;4243;49.296;11.348;2022-09-09T14:58:57;119.90;;;2.43;;
8411;SDS011;4243;49.296;11.348;2022-09-09T15:01:27;120.23;;;2.40;;
8411;SDS011;4243;49.296;11.348;2022-09-09T15:03:57;120.73;;;2.43;;
8411;SDS011;4243;49.296;11.348;2022-09-09T15:06:28;120.67;;;2.40;;
8411;SDS011;4243;49.296;11.348;2022-09-09T15:08:59;120.23;;;2.33;;
8411;SDS011;4243;49.296;11.348;2022-09-09T15:11:27;120.20;;;2.27;;
8411;SDS011;4243;49.296;11.348;2022-09-09T15:14:00;119.93;;;2.30;;
8411;SDS011;4243;49.296;11.348;2022-09-09T15:16:28;119.67;;;2.30;;
8411;SDS011;4243;49.296;11.348;2022-09-09T15:18:58;119.37;;;2.17;;
8411;SDS011;4243;49.296;11.348;2022-09-09T15:21:31;119.17;;;2.03;;
8411;SDS011;4243;49.296;11.348;2022-09-09T15:24:01;118.57;;;2.10;;
8411;SDS011;4243;49.296;11.348;2022-09-09T15:26:30;118.00;;;2.00;;
8411;SDS011;4243;49.296;11.348;2022-09-09T15:28:58;117.67;;;2.20;;
8411;SDS011;4243;49.296;11.348;2022-09-09T15:31:29;117.73;;;1.90;;
8411;SDS011;4243;49.296;11.348;2022-09-09T15:33:59;116.60;;;1.97;;
8411;SDS011;4243;49.296;11.348;2022-09-09T15:36:33;117.87;;;2.10;;
8411;SDS011;4243;49.296;11.348;2022-09-09T15:39:06;116.90;;;2.20;;
8411;SDS011;4243;49.296;11.348;2022-09-09T15:41:39;117.50;;;1.97;;
8411;SDS011;4243;49.296;11.348;2022-09-09T15:44:08;117.33;;;1.90;;
8411;SDS011;4243;49.296;11.348;2022-09-09T15:49:23;117.87;;;2.20;;
8411;SDS011;4243;49.296;11.348;2022-09-09T15:51:53;117.57;;;1.97;;
8411;SDS011;4243;49.296;11.348;2022-09-09T15:54:30;117.10;;;2.00;;
8411;SDS011;4243;49.296;11.348;2022-09-09T15:57:02;117.57;;;2.07;;
8411;SDS011;4243;49.296;11.348;2022-09-09T15:59:31;118.00;;;2.13;;
8411;SDS011;4243;49.296;11.348;2022-09-09T16:02:00;118.40;;;2.13;;
8411;SDS011;4243;49.296;11.348;2022-09-09T16:04:28;117.70;;;2.20;;
8411;SDS011;4243;49.296;11.348;2022-09-09T16:06:57;118.43;;;2.17;;
8411;SDS011;4243;49.296;11.348;2022-09-09T16:09:27;118.03;;;2.27;;
8411;SDS011;4243;49.296;11.348;2022-09-09T16:11:56;118.67;;;2.40;;
8411;SDS011;4243;49.296;11.348;2022-09-09T16:14:28;118.47;;;2.10;;
8411;SDS011;4243;49.296;11.348;2022-09-09T16:17:00;118.27;;;2.17;;
8411;SDS011;4243;49.296;11.348;2022-09-09T16:19:29;118.17;;;2.10;;
8411;SDS011;4243;49.296;11.348;2022-09-09T16:21:57;118.63;;;2.10;;
8411;SDS011;4243;49.296;11.348;2022-09-09T16:24:24;118.60;;;2.07;;
8411;SDS011;4243;49.296;11.348;2022-09-09T16:26:53;118.97;;;2.00;;
8411;SDS011;4243;49.296;11.348;2022-09-09T16:29:21;118.50;;;2.10;;
8411;SDS011;4243;49.296;11.348;2022-09-09T16:31:50;118.97;;;2.20;;
8411;SDS011;4243;49.296;11.348;2022-09-09T16:34:18;118.87;;;2.17;;
8411;SDS011;4243;49.296;11.348;2022-09-09T16:36:46;118.80;;;2.20;;
8411;SDS011;4243;49.296;11.348;2022-09-09T16:39:16;118.97;;;2.10;;
8411;SDS011;4243;49.296;11.348;2022-09-09T16:41:46;119.30;;;2.30;;
8411;SDS011;4243;49.296;11.348;2022-09-09T16:44:16;118.77;;;2.20;;
8411;SDS011;4243;49.296;11.348;2022-09-09T16:46:46;119.63;;;2.40;;
8411;SDS011;4243;49.296;11.348;2022-09-09T16:49:25;119.80;;;2.80;;
8411;SDS011;4243;49.296;11.348;2022-09-09T16:51:56;120.10;;;2.70;;
8411;SDS011;4243;49.296;11.348;2022-09-09T16:54:25;120.20;;;2.80;;
8411;SDS011;4243;49.296;11.348;2022-09-09T16:56:53;119.90;;;2.53;;
8411;SDS011;4243;49.296;11.348;2022-09-09T16:59:21;120.00;;;2.40;;
8411;SDS011;4243;49.296;11.348;2022-09-09T17:01:50;120.10;;;2.30;;
8411;SDS011;4243;49.296;11.348;2022-09-09T17:04:19;120.20;;;2.50;;
8411;SDS011;4243;49.296;11.348;2022-09-09T17:06:54;120.40;;;2.50;;
8411;SDS011;4243;49.296;11.348;2022-09-09T17:09:24;120.90;;;2.33;;
8411;SDS011;4243;49.296;11.348;2022-09-09T17:11:55;121.13;;;2.63;;
8411;SDS011;4243;49.296;11.348;2022-09-09T17:14:24;121.40;;;2.50;;
8411;SDS011;4243;49.296;11.348;2022-09-09T17:16:52;121.40;;;2.87;;
8411;SDS011;4243;49.296;11.348;2022-09-09T17:19:19;121.27;;;2.90;;
8411;SDS011;4243;49.296;11.348;2022-09-09T17:21:47;121.57;;;2.90;;